Terminal Aerodrome Forecast
Issued by NWS

Home | Current Version | Previous Version | Text Only | Print | Product List | Glossary On
Versions: 1 2 3 4 5 6 7 8 9 10 11 12 13 14 15 16
000
FTUS41 KBTV 290500
TAFSLK
TAF
KSLK 290525Z 2906/3006 00000KT P6SM BKN035
     FM290900 00000KT P6SM SCT035
      TEMPO 2909/2912 3/4SM BR BKN002
     FM291300 VRB03KT P6SM SKC=

USA.gov is the U.S. government's official web portal to all federal, state and local government web resources and services.